createdAt,value
2023-05-24T00:01:26.612Z,6.43
2023-05-24T00:03:59.027Z,5.57
2023-05-24T00:06:28.621Z,5.93
2023-05-24T00:08:56.902Z,6.70
2023-05-24T00:11:24.887Z,6.50
2023-05-24T00:13:53.001Z,6.20
2023-05-24T00:16:21.409Z,6.27
2023-05-24T00:18:52.142Z,6.20
2023-05-24T00:21:20.255Z,6.33
2023-05-24T00:23:48.316Z,6.27
2023-05-24T00:26:16.543Z,6.00
2023-05-24T00:28:44.892Z,5.73
2023-05-24T00:31:13.190Z,6.17
2023-05-24T00:33:41.157Z,5.83
2023-05-24T00:36:10.614Z,6.57
2023-05-24T00:38:38.624Z,6.15
2023-05-24T00:41:06.864Z,6.10
2023-05-24T00:43:35.621Z,6.57
2023-05-24T00:46:29.696Z,5.70
2023-05-24T00:48:58.584Z,6.50
2023-05-24T00:51:28.625Z,6.00
2023-05-24T00:53:57.207Z,6.90
2023-05-24T00:56:26.289Z,7.00
2023-05-24T00:58:56.161Z,6.00
2023-05-24T01:01:25.991Z,6.17
2023-05-24T01:03:54.853Z,6.67
2023-05-24T01:06:23.568Z,6.43
2023-05-24T01:09:17.224Z,6.53
2023-05-24T01:11:57.024Z,6.40
2023-05-24T01:14:31.093Z,5.60
2023-05-24T01:17:11.757Z,6.20
2023-05-24T01:19:53.295Z,7.03
2023-05-24T01:23:04.142Z,5.90
2023-05-24T01:25:55.227Z,6.77
2023-05-24T01:28:25.978Z,6.10
2023-05-24T01:30:54.895Z,5.67
2023-05-24T01:33:23.142Z,6.53
2023-05-24T01:35:51.385Z,6.43
2023-05-24T01:38:19.493Z,6.53
2023-05-24T01:40:51.714Z,6.80
2023-05-24T01:43:28.847Z,7.07
2023-05-24T01:46:07.436Z,6.43
2023-05-24T01:48:47.318Z,5.63
2023-05-24T01:51:19.706Z,6.50
2023-05-24T01:53:50.035Z,7.17
2023-05-24T01:56:20.404Z,6.87
2023-05-24T01:58:52.758Z,7.13
2023-05-24T02:01:21.479Z,6.10
2023-05-24T02:03:50.902Z,6.43
2023-05-24T02:06:19.329Z,6.77
2023-05-24T02:08:47.942Z,7.03
2023-05-24T02:11:15.930Z,5.37
2023-05-24T02:13:44.021Z,7.13
2023-05-24T02:16:13.648Z,6.33
2023-05-24T02:18:44.723Z,5.73
2023-05-24T02:21:13.004Z,6.80
2023-05-24T02:23:41.249Z,6.63
2023-05-24T02:26:11.565Z,7.17
2023-05-24T02:28:39.962Z,5.63
2023-05-24T02:31:08.628Z,6.53
2023-05-24T02:33:38.325Z,6.37
2023-05-24T02:36:06.565Z,6.00
2023-05-24T02:38:34.580Z,6.73
2023-05-24T02:41:02.589Z,6.70
2023-05-24T02:43:30.954Z,6.53
2023-05-24T02:45:59.041Z,5.63
2023-05-24T02:48:27.215Z,5.80
2023-05-24T02:50:56.900Z,5.80
2023-05-24T02:53:25.020Z,6.60
2023-05-24T02:55:53.299Z,6.87
2023-05-24T02:58:21.366Z,6.70
2023-05-24T03:00:49.810Z,6.47
2023-05-24T03:03:18.341Z,5.73
2023-05-24T03:05:46.559Z,6.37
2023-05-24T03:08:16.825Z,6.13
2023-05-24T03:10:44.996Z,6.23
2023-05-24T03:13:13.118Z,5.83
2023-05-24T03:15:41.565Z,6.80
2023-05-24T03:18:09.719Z,6.70
2023-05-24T03:20:37.873Z,6.37
2023-05-24T03:23:06.073Z,6.43
2023-05-24T03:25:35.436Z,6.70
2023-05-24T03:28:03.438Z,6.10
2023-05-24T03:30:31.817Z,6.40
2023-05-24T03:32:59.972Z,5.97
2023-05-24T03:35:28.239Z,5.83
2023-05-24T03:37:56.642Z,6.67
2023-05-24T03:40:25.738Z,6.17
2023-05-24T03:42:55.453Z,6.03
2023-05-24T03:45:34.638Z,5.97
2023-05-24T03:48:06.537Z,6.03
2023-05-24T03:50:34.629Z,6.33
2023-05-24T03:53:02.719Z,5.67
2023-05-24T03:55:30.817Z,6.43
2023-05-24T03:58:00.310Z,5.60
2023-05-24T04:00:28.533Z,6.23
2023-05-24T04:02:56.925Z,5.93
2023-05-24T04:05:27.078Z,5.10
2023-05-24T04:07:55.591Z,5.90
2023-05-24T04:10:23.918Z,6.30
2023-05-24T04:12:52.286Z,5.97
2023-05-24T04:15:23.086Z,5.57
2023-05-24T04:17:55.380Z,5.77
2023-05-24T04:20:25.623Z,5.70
2023-05-24T04:22:54.055Z,5.97
2023-05-24T04:25:22.324Z,5.10
2023-05-24T04:27:50.432Z,5.87
2023-05-24T04:30:18.833Z,5.73
2023-05-24T04:32:48.819Z,6.47
2023-05-24T04:35:17.154Z,6.00
2023-05-24T04:37:45.346Z,5.77
2023-05-24T04:40:14.065Z,5.03
2023-05-24T04:42:42.130Z,5.30
2023-05-24T04:45:11.261Z,5.80
2023-05-24T04:47:39.509Z,6.30
2023-05-24T04:50:09.799Z,6.50
2023-05-24T04:52:38.389Z,5.10
2023-05-24T04:55:07.302Z,5.33
2023-05-24T04:57:35.280Z,5.93
2023-05-24T05:00:04.684Z,5.38
2023-05-24T05:02:33.520Z,5.72
2023-05-24T05:05:01.724Z,6.55
2023-05-24T05:07:31.227Z,5.97
2023-05-24T05:09:59.511Z,5.73
2023-05-24T05:12:27.522Z,5.50
2023-05-24T05:14:55.552Z,5.10
2023-05-24T05:17:23.945Z,6.23
2023-05-24T05:19:51.959Z,5.00
2023-05-24T05:22:20.432Z,6.50
2023-05-24T05:24:49.862Z,5.90
2023-05-24T05:27:18.228Z,6.03
2023-05-24T05:29:46.298Z,5.57
2023-05-24T05:32:14.392Z,5.75
2023-05-24T05:34:42.475Z,5.97
2023-05-24T05:37:10.518Z,5.80
2023-05-24T05:39:38.692Z,5.38
2023-05-24T05:42:08.651Z,6.03
2023-05-24T05:44:37.200Z,5.60
2023-05-24T05:47:07.403Z,5.40
2023-05-24T05:49:36.381Z,6.07
2023-05-24T05:52:04.597Z,6.10
2023-05-24T05:54:32.845Z,4.83
2023-05-24T05:57:01.903Z,5.97
2023-05-24T05:59:33.276Z,5.65
2023-05-24T06:02:01.339Z,5.95
2023-05-24T06:04:29.692Z,6.50
2023-05-24T06:06:57.725Z,6.30
2023-05-24T06:09:25.733Z,5.35
2023-05-24T06:11:53.747Z,5.85
2023-05-24T06:14:25.189Z,6.28
2023-05-24T06:16:55.763Z,5.55
2023-05-24T06:19:25.022Z,5.43
2023-05-24T06:21:53.380Z,5.77
2023-05-24T06:24:21.611Z,7.20
2023-05-24T06:26:50.149Z,5.47
2023-05-24T06:29:20.150Z,5.27
2023-05-24T06:31:48.349Z,5.63
2023-05-24T06:34:19.007Z,5.85
2023-05-24T06:36:48.364Z,6.27
2023-05-24T06:39:17.758Z,5.57
2023-05-24T06:41:46.830Z,5.50
2023-05-24T06:44:14.912Z,5.67
2023-05-24T06:46:43.273Z,6.28
2023-05-24T06:49:11.639Z,6.43
2023-05-24T06:51:41.096Z,5.47
2023-05-24T06:54:09.428Z,5.70
2023-05-24T06:56:37.461Z,5.68
2023-05-24T06:59:06.241Z,6.78
2023-05-24T07:01:34.382Z,5.45
2023-05-24T07:04:02.467Z,5.50
2023-05-24T07:06:30.603Z,6.10
2023-05-24T07:09:01.822Z,6.10
2023-05-24T07:11:30.062Z,5.57
2023-05-24T07:13:58.444Z,5.85
2023-05-24T07:16:26.565Z,6.28
2023-05-24T07:18:58.373Z,6.28
2023-05-24T07:21:26.593Z,5.75
2023-05-24T07:23:54.640Z,5.97
2023-05-24T07:26:24.344Z,5.38
2023-05-24T07:28:52.356Z,5.90
2023-05-24T07:31:21.359Z,6.75
2023-05-24T07:33:49.502Z,6.35
2023-05-24T07:36:19.084Z,6.05
2023-05-24T07:38:47.185Z,5.78
2023-05-24T07:41:15.498Z,5.85
2023-05-24T07:43:44.940Z,6.95
2023-05-24T07:46:13.336Z,6.28
2023-05-24T07:48:42.279Z,6.82
2023-05-24T07:51:10.413Z,6.15
2023-05-24T07:53:38.663Z,5.70
2023-05-24T07:56:08.550Z,6.13
2023-05-24T07:58:36.602Z,6.57
2023-05-24T08:01:06.430Z,6.25
2023-05-24T08:03:37.160Z,6.22
2023-05-24T08:06:05.594Z,6.45
2023-05-24T08:08:33.795Z,5.97
2023-05-24T08:11:01.974Z,6.20
2023-05-24T08:13:30.039Z,5.55
2023-05-24T08:15:58.934Z,5.13
2023-05-24T08:18:28.764Z,5.07
2023-05-24T08:20:57.166Z,6.75
2023-05-24T08:23:26.179Z,5.90
2023-05-24T08:25:54.387Z,6.22
2023-05-24T08:28:23.000Z,6.45
2023-05-24T08:30:51.203Z,5.50
2023-05-24T08:33:19.773Z,5.53
2023-05-24T08:35:49.875Z,5.97
2023-05-24T08:38:17.984Z,5.68
2023-05-24T08:40:46.446Z,5.60
2023-05-24T08:43:15.839Z,6.80
2023-05-24T08:45:45.501Z,5.72
2023-05-24T08:48:14.634Z,6.15
2023-05-24T08:50:45.222Z,6.18
2023-05-24T08:53:16.274Z,6.95
2023-05-24T08:55:45.241Z,6.38
2023-05-24T08:58:14.429Z,6.53
2023-05-24T09:00:42.813Z,5.55
2023-05-24T09:03:12.076Z,6.00
2023-05-24T09:05:42.571Z,6.00
2023-05-24T09:08:11.728Z,6.10
2023-05-24T09:10:52.912Z,6.90
2023-05-24T09:13:24.809Z,6.75
2023-05-24T09:15:53.426Z,6.68
2023-05-24T09:18:22.045Z,6.00
2023-05-24T09:20:51.006Z,6.25
2023-05-24T09:23:19.871Z,6.88
2023-05-24T09:25:49.583Z,6.20
2023-05-24T09:28:21.008Z,6.07
2023-05-24T09:31:02.729Z,6.93
2023-05-24T09:33:32.949Z,6.45
2023-05-24T09:36:02.250Z,7.18
2023-05-24T09:38:30.446Z,6.00
2023-05-24T09:41:05.835Z,6.43
2023-05-24T09:43:36.323Z,6.30
2023-05-24T09:46:05.061Z,5.55
2023-05-24T09:48:33.510Z,5.95
2023-05-24T09:51:06.400Z,5.97
2023-05-24T09:53:35.850Z,6.82
2023-05-24T09:56:08.799Z,6.28
2023-05-24T09:58:37.600Z,6.75
2023-05-24T10:01:07.617Z,5.38
2023-05-24T10:03:37.909Z,6.35
2023-05-24T10:06:08.028Z,5.50
2023-05-24T10:08:37.547Z,6.72
2023-05-24T10:11:09.451Z,6.05
2023-05-24T10:13:37.958Z,6.05
2023-05-24T10:16:06.768Z,5.88
2023-05-24T10:18:35.260Z,5.43
2023-05-24T10:21:08.062Z,5.13
2023-05-24T10:23:39.259Z,5.13
2023-05-24T10:26:11.501Z,5.13
2023-05-24T10:28:45.949Z,6.13
2023-05-24T10:31:19.239Z,5.10
2023-05-24T10:33:48.570Z,5.25
2023-05-24T10:36:17.504Z,5.40
2023-05-24T10:38:48.060Z,5.13
2023-05-24T10:41:19.645Z,5.55
2023-05-24T10:44:04.865Z,5.93
2023-05-24T10:46:36.940Z,5.63
2023-05-24T10:49:07.787Z,4.38
2023-05-24T10:51:38.518Z,5.25
2023-05-24T10:54:15.517Z,5.63
2023-05-24T10:56:46.847Z,4.40
2023-05-24T10:59:26.353Z,4.95
2023-05-24T11:01:58.165Z,5.20
2023-05-24T11:04:27.453Z,5.75
2023-05-24T11:07:01.801Z,5.57
2023-05-24T11:09:30.101Z,5.93
2023-05-24T11:12:04.062Z,5.57
2023-05-24T11:14:33.544Z,4.88
2023-05-24T11:17:02.217Z,5.93
2023-05-24T11:19:35.706Z,5.35
2023-05-24T11:22:05.376Z,5.75
2023-05-24T11:24:34.807Z,6.70
2023-05-24T11:27:06.122Z,5.78
2023-05-24T11:29:36.075Z,5.32
2023-05-24T11:32:07.953Z,5.55
2023-05-24T11:34:36.423Z,5.65
2023-05-24T11:37:05.980Z,4.97
2023-05-24T11:39:35.951Z,5.65
2023-05-24T11:42:11.725Z,5.55
2023-05-24T11:44:40.288Z,5.45
2023-05-24T11:47:09.295Z,5.95
2023-05-24T11:49:37.419Z,5.30
2023-05-24T11:52:06.458Z,6.30
2023-05-24T11:54:35.026Z,5.97
2023-05-24T11:57:03.551Z,5.47
2023-05-24T11:59:35.992Z,6.20
2023-05-24T12:02:05.856Z,4.78
2023-05-24T12:04:34.912Z,5.85
2023-05-24T12:07:03.700Z,6.30
2023-05-24T12:09:31.902Z,5.95
2023-05-24T12:12:00.023Z,6.10
2023-05-24T12:14:31.028Z,5.30
2023-05-24T12:17:01.939Z,5.35
2023-05-24T12:19:34.684Z,4.75
2023-05-24T12:22:06.807Z,5.05
2023-05-24T12:24:36.265Z,5.13
2023-05-24T12:27:08.101Z,5.05
2023-05-24T12:29:37.860Z,5.93
2023-05-24T12:32:13.542Z,5.53
2023-05-24T12:34:43.366Z,5.47
2023-05-24T12:37:13.184Z,5.07
2023-05-24T12:39:43.434Z,5.63
2023-05-24T12:42:14.299Z,5.57
2023-05-24T12:44:43.113Z,5.53
2023-05-24T12:47:12.999Z,5.40
2023-05-24T12:49:41.131Z,5.82
2023-05-24T12:52:09.445Z,5.28
2023-05-24T12:54:37.664Z,5.85
2023-05-24T12:57:06.318Z,6.40
2023-05-24T12:59:35.034Z,5.00
2023-05-24T13:02:03.261Z,4.60
2023-05-24T13:04:33.826Z,4.95
2023-05-24T13:07:03.015Z,5.00
2023-05-24T13:09:31.136Z,4.70
2023-05-24T13:11:59.509Z,5.18
2023-05-24T13:14:27.837Z,4.70
2023-05-24T13:16:56.258Z,5.47
2023-05-24T13:19:24.509Z,4.82
2023-05-24T13:21:54.073Z,5.03
2023-05-24T13:24:23.232Z,4.85
2023-05-24T13:26:54.511Z,5.38
2023-05-24T13:31:54.847Z,4.97
2023-05-24T13:34:23.437Z,5.10
2023-05-24T13:36:52.837Z,4.95
2023-05-24T13:39:21.629Z,4.60
2023-05-24T13:41:50.089Z,5.47
2023-05-24T13:44:18.443Z,5.15
2023-05-24T13:46:47.274Z,5.82
2023-05-24T13:49:16.144Z,5.55
2023-05-24T13:51:44.195Z,5.65
2023-05-24T13:54:14.279Z,5.13
2023-05-24T13:56:44.240Z,5.70
2023-05-24T13:59:12.978Z,4.97
2023-05-24T14:01:41.442Z,5.80
2023-05-24T14:04:10.056Z,5.50
2023-05-24T14:06:38.430Z,5.75
2023-05-24T14:09:08.488Z,4.80
2023-05-24T14:11:38.143Z,5.20
2023-05-24T14:16:37.712Z,5.13
2023-05-24T14:19:06.357Z,5.20
2023-05-24T14:21:34.458Z,5.38
2023-05-24T14:24:02.562Z,4.95
2023-05-24T14:26:31.063Z,4.68
2023-05-24T14:29:00.507Z,5.20
2023-05-24T14:31:28.610Z,5.28
2023-05-24T14:33:56.708Z,5.13
2023-05-24T14:36:25.050Z,4.43
2023-05-24T14:38:53.339Z,5.60
2023-05-24T14:41:22.617Z,4.57
2023-05-24T14:43:51.423Z,5.20
2023-05-24T14:46:21.201Z,5.20
2023-05-24T14:48:49.209Z,4.63
2023-05-24T14:51:17.619Z,5.80
2023-05-24T14:53:46.571Z,5.65
2023-05-24T14:56:15.201Z,5.55
2023-05-24T14:58:43.573Z,5.00
2023-05-24T15:01:11.719Z,4.78
2023-05-24T15:03:41.331Z,4.78
2023-05-24T15:06:09.663Z,5.00
2023-05-24T15:08:37.793Z,5.65
2023-05-24T15:11:06.428Z,5.88
2023-05-24T15:13:35.018Z,5.10
2023-05-24T15:16:03.156Z,4.90
2023-05-24T15:18:32.666Z,5.05
2023-05-24T15:21:02.093Z,4.93
2023-05-24T15:23:30.560Z,5.35
2023-05-24T15:25:58.580Z,5.28
2023-05-24T15:28:27.237Z,4.43
2023-05-24T15:30:55.972Z,5.07
2023-05-24T15:33:24.083Z,5.95
2023-05-24T15:35:52.173Z,5.30
2023-05-24T15:38:22.734Z,4.43
2023-05-24T15:40:50.841Z,5.03
2023-05-24T15:43:19.788Z,5.18
2023-05-24T15:45:57.858Z,5.63
2023-05-24T15:48:25.870Z,5.13
2023-05-24T15:51:42.944Z,4.85
2023-05-24T15:53:43.600Z,4.88
2023-05-24T15:56:12.192Z,4.60
2023-05-24T15:58:40.382Z,5.20
2023-05-24T16:01:08.523Z,4.07
2023-05-24T16:03:37.977Z,4.78
2023-05-24T16:06:06.864Z,3.97
2023-05-24T16:08:35.002Z,4.72
2023-05-24T16:11:08.093Z,5.57
2023-05-24T16:13:36.323Z,6.10
2023-05-24T16:16:04.472Z,4.60
2023-05-24T16:18:34.586Z,5.38
2023-05-24T16:21:05.346Z,5.32
2023-05-24T16:23:33.522Z,5.40
2023-05-24T16:26:01.580Z,5.03
2023-05-24T16:28:31.052Z,4.95
2023-05-24T16:31:02.963Z,4.45
2023-05-24T16:33:31.294Z,5.20
2023-05-24T16:36:03.328Z,5.53
2023-05-24T16:38:31.983Z,4.75
2023-05-24T16:41:00.061Z,4.97
2023-05-24T16:43:28.159Z,5.18
2023-05-24T16:45:57.856Z,5.05
2023-05-24T16:48:28.729Z,4.25
2023-05-24T16:50:57.171Z,4.60
2023-05-24T16:53:26.276Z,4.57
2023-05-24T16:55:55.900Z,5.00
2023-05-24T16:58:25.562Z,5.13
2023-05-24T17:00:54.567Z,4.35
2023-05-24T17:03:28.103Z,4.05
2023-05-24T17:06:01.085Z,4.38
2023-05-24T17:08:31.210Z,4.43
2023-05-24T17:10:59.242Z,4.45
2023-05-24T17:13:28.327Z,4.53
2023-05-24T17:15:56.689Z,4.30
2023-05-24T17:18:30.678Z,4.40
2023-05-24T17:21:00.166Z,4.78
2023-05-24T17:23:29.518Z,4.32
2023-05-24T17:25:57.692Z,3.85
2023-05-24T17:28:27.830Z,3.90
2023-05-24T17:30:56.419Z,4.20
2023-05-24T17:33:26.992Z,4.72
2023-05-24T17:35:56.885Z,4.20
2023-05-24T17:38:25.701Z,4.47
2023-05-24T17:40:59.157Z,4.25
2023-05-24T17:43:29.156Z,4.00
2023-05-24T17:46:03.296Z,4.38
2023-05-24T17:48:33.940Z,4.60
2023-05-24T17:51:02.605Z,4.28
2023-05-24T17:53:32.386Z,4.15
2023-05-24T17:56:00.803Z,4.55
2023-05-24T17:58:30.776Z,4.18
2023-05-24T18:00:59.081Z,4.60
2023-05-24T18:03:27.140Z,3.80
2023-05-24T18:05:56.566Z,4.70
2023-05-24T18:08:25.336Z,4.20
2023-05-24T18:10:53.400Z,4.55
2023-05-24T18:13:21.711Z,4.15
2023-05-24T18:15:50.038Z,4.40
2023-05-24T18:18:18.294Z,4.63
2023-05-24T18:20:46.439Z,4.10
2023-05-24T18:23:16.158Z,3.70
2023-05-24T18:25:45.018Z,4.75
2023-05-24T18:28:13.989Z,4.43
2023-05-24T18:30:43.962Z,5.15
2023-05-24T18:33:12.332Z,4.15
2023-05-24T18:35:40.719Z,6.22
2023-05-24T18:38:09.032Z,4.85
2023-05-24T18:40:38.499Z,4.43
2023-05-24T18:43:06.796Z,4.30
2023-05-24T18:45:34.959Z,4.65
2023-05-24T18:48:03.063Z,3.80
2023-05-24T18:50:31.188Z,4.13
2023-05-24T18:52:59.233Z,5.35
2023-05-24T18:55:27.299Z,4.57
2023-05-24T18:57:57.017Z,4.35
2023-05-24T19:00:25.206Z,5.35
2023-05-24T19:02:55.350Z,5.10
2023-05-24T19:05:23.843Z,5.40
2023-05-24T19:07:51.871Z,6.75
2023-05-24T19:10:19.958Z,4.45
2023-05-24T19:12:48.171Z,4.60
2023-05-24T19:15:18.008Z,5.43
2023-05-24T19:17:46.055Z,4.63
2023-05-24T19:20:14.332Z,5.57
2023-05-24T19:22:42.526Z,5.53
2023-05-24T19:25:11.099Z,5.65
2023-05-24T19:27:44.776Z,5.07
2023-05-24T19:30:24.459Z,5.55
2023-05-24T19:32:52.622Z,4.47
2023-05-24T19:35:21.052Z,5.57
2023-05-24T19:37:49.389Z,7.57
2023-05-24T19:40:17.676Z,6.18
2023-05-24T19:42:45.763Z,6.30
2023-05-24T19:45:14.408Z,4.25
2023-05-24T19:47:44.622Z,5.40
2023-05-24T19:50:12.893Z,19.30
2023-05-24T19:52:40.935Z,16.20
2023-05-24T19:55:10.583Z,22.65
2023-05-24T19:57:38.636Z,8.50
2023-05-24T20:00:08.053Z,7.65
2023-05-24T20:02:36.823Z,5.00
2023-05-24T20:05:07.069Z,5.82
2023-05-24T20:07:35.086Z,6.18
2023-05-24T20:10:05.178Z,11.32
2023-05-24T20:12:34.650Z,13.80
2023-05-24T20:15:02.846Z,10.82
2023-05-24T20:17:31.013Z,6.50
2023-05-24T20:19:59.045Z,5.20
2023-05-24T20:22:30.797Z,4.85
2023-05-24T20:24:58.956Z,5.63
2023-05-24T20:27:26.997Z,5.57
2023-05-24T20:29:54.999Z,4.50
2023-05-24T20:32:23.056Z,5.47
2023-05-24T20:34:51.379Z,5.60
2023-05-24T20:37:19.865Z,4.88
2023-05-24T20:39:49.420Z,5.50
2023-05-24T20:42:18.539Z,4.63
2023-05-24T20:44:46.577Z,5.40
2023-05-24T20:47:16.655Z,4.68
2023-05-24T20:49:44.691Z,5.40
2023-05-24T20:52:12.731Z,5.70
2023-05-24T20:54:40.942Z,5.30
2023-05-24T20:57:10.276Z,4.65
2023-05-24T20:59:38.234Z,4.78
2023-05-24T21:02:06.448Z,4.28
2023-05-24T21:04:34.474Z,5.15
2023-05-24T21:07:02.449Z,4.80
2023-05-24T21:09:30.523Z,4.78
2023-05-24T21:11:58.478Z,5.07
2023-05-24T21:14:28.287Z,4.80
2023-05-24T21:16:56.419Z,4.07
2023-05-24T21:19:24.455Z,5.20
2023-05-24T21:21:52.433Z,4.50
2023-05-24T21:24:20.496Z,5.40
2023-05-24T21:26:48.604Z,4.60
2023-05-24T21:29:16.695Z,5.03
2023-05-24T21:31:46.423Z,4.75
2023-05-24T21:34:14.384Z,5.28
2023-05-24T21:36:42.659Z,4.97
2023-05-24T21:39:10.794Z,4.47
2023-05-24T21:41:39.114Z,4.25
2023-05-24T21:44:08.168Z,4.78
2023-05-24T21:46:36.766Z,4.63
2023-05-24T21:49:06.289Z,5.28
2023-05-24T21:51:35.912Z,5.32
2023-05-24T21:54:13.782Z,5.55
2023-05-24T21:57:04.216Z,5.07
2023-05-24T21:59:53.694Z,5.00
2023-05-24T22:02:24.180Z,5.00
2023-05-24T22:04:54.966Z,5.15
2023-05-24T22:07:24.755Z,4.75
2023-05-24T22:10:01.829Z,4.95
2023-05-24T22:12:36.969Z,5.80
2023-05-24T22:15:07.088Z,5.38
2023-05-24T22:17:42.461Z,5.72
2023-05-24T22:20:13.964Z,5.72
2023-05-24T22:22:49.440Z,5.70
2023-05-24T22:25:21.531Z,5.43
2023-05-24T22:27:53.578Z,5.43
2023-05-24T22:30:27.478Z,4.93
2023-05-24T22:32:57.604Z,5.15
2023-05-24T22:35:35.508Z,4.95
2023-05-24T22:38:04.799Z,5.72
2023-05-24T22:40:37.022Z,6.30
2023-05-24T22:43:06.996Z,5.65
2023-05-24T22:45:36.830Z,4.75
2023-05-24T22:48:06.396Z,5.25
2023-05-24T22:50:38.568Z,5.38
2023-05-24T22:53:11.823Z,5.20
2023-05-24T22:55:40.339Z,5.00
2023-05-24T22:58:08.359Z,5.22
2023-05-24T23:00:36.758Z,4.78
2023-05-24T23:03:04.948Z,4.97
2023-05-24T23:05:34.637Z,5.38
2023-05-24T23:08:04.737Z,4.55
2023-05-24T23:10:32.969Z,4.93
2023-05-24T23:13:01.001Z,5.30
2023-05-24T23:15:29.190Z,6.60
2023-05-24T23:17:58.372Z,5.10
2023-05-24T23:20:27.720Z,6.10
2023-05-24T23:22:55.895Z,5.40
2023-05-24T23:25:25.342Z,5.03
2023-05-24T23:27:53.451Z,5.03
2023-05-24T23:30:21.526Z,5.18
2023-05-24T23:32:49.938Z,5.43
2023-05-24T23:35:18.249Z,5.22
2023-05-24T23:37:46.741Z,5.47
2023-05-24T23:40:15.060Z,5.50
2023-05-24T23:42:44.451Z,5.93
2023-05-24T23:45:15.680Z,5.50
2023-05-24T23:47:43.757Z,5.68
2023-05-24T23:50:12.283Z,4.60
2023-05-24T23:52:40.635Z,4.30
2023-05-24T23:55:09.464Z,5.32
2023-05-24T23:57:37.559Z,5.30
